Time;durP1;ratioP1;P1;durP2;ratioP2;P2;SDS_P1;SDS_P2;PMS_P1;PMS_P2;Temp;Humidity;BMP_temperature;BMP_pressure;BME280_temperature;BME280_humidity;BME280_pressure;Samples;Min_cycle;Max_cycle;Signal;HPM_P1;HPM_P2
2023/10/13 00:01:22;;;;;;;58.80;27.40;;;;;;;;;;4893340;29;20050;-76
2023/10/13 00:03:48;;;;;;;57.05;27.30;;;;;;;;;;4893855;29;20027;-76
2023/10/13 00:06:15;;;;;;;57.78;27.33;;;;;;;;;;4898559;29;20111;-76
2023/10/13 00:08:42;;;;;;;56.80;26.45;;;;;;;;;;4893841;29;20132;-77
2023/10/13 00:11:12;;;;;;;54.78;28.08;;;;;;;;;;4892362;29;20052;-77
2023/10/13 00:13:51;;;;;;;59.92;28.48;;;;;;;;;;4901740;29;20041;-76
2023/10/13 00:16:21;;;;;;;62.10;27.35;;;;;;;;;;4895172;29;20490;-77
2023/10/13 00:18:48;;;;;;;59.53;26.27;;;;;;;;;;4902571;29;20053;-78
2023/10/13 00:21:19;;;;;;;60.83;28.05;;;;;;;;;;4894027;29;20033;-75
2023/10/13 00:23:52;;;;;;;60.10;28.05;;;;;;;;;;4894944;29;20057;-77
2023/10/13 00:26:19;;;;;;;59.50;27.17;;;;;;;;;;4893265;29;20029;-77
2023/10/13 00:28:58;;;;;;;63.38;27.98;;;;;;;;;;4896192;29;21521;-76
2023/10/13 00:31:32;;;;;;;64.43;27.27;;;;;;;;;;4895099;29;20103;-76
2023/10/13 00:34:09;;;;;;;67.70;29.75;;;;;;;;;;4893698;29;20119;-77
2023/10/13 00:36:35;;;;;;;70.72;28.75;;;;;;;;;;4892165;29;20040;-77
2023/10/13 00:39:03;;;;;;;52.15;25.25;;;;;;;;;;4879151;29;20498;-77
2023/10/13 00:44:16;;;;;;;66.47;28.42;;;;;;;;;;4898983;29;20082;-77
2023/10/13 00:46:44;;;;;;;80.80;32.92;;;;;;;;;;4894685;29;20123;-77
2023/10/13 00:49:15;;;;;;;78.63;30.95;;;;;;;;;;4879766;29;20028;-77
2023/10/13 00:51:47;;;;;;;84.20;32.95;;;;;;;;;;4893645;29;20033;-77
2023/10/13 00:54:13;;;;;;;83.20;33.55;;;;;;;;;;4895531;29;20376;-77
2023/10/13 00:56:52;;;;;;;86.10;33.60;;;;;;;;;;4876206;29;20039;-77
2023/10/13 00:59:23;;;;;;;86.95;34.00;;;;;;;;;;4893694;29;20056;-77
2023/10/13 01:01:55;;;;;;;92.85;33.65;;;;;;;;;;4878485;29;20088;-77
2023/10/13 01:04:28;;;;;;;92.72;33.90;;;;;;;;;;4881684;29;20032;-77
2023/10/13 01:06:54;;;;;;;83.13;32.63;;;;;;;;;;4895259;29;20115;-78
2023/10/13 01:09:24;;;;;;;77.47;32.88;;;;;;;;;;4860484;29;20044;-77
2023/10/13 01:12:00;;;;;;;75.55;32.13;;;;;;;;;;4872732;29;20028;-79
2023/10/13 01:14:28;;;;;;;75.32;31.88;;;;;;;;;;4879234;29;20040;-78
2023/10/13 01:16:58;;;;;;;78.72;33.42;;;;;;;;;;4896321;29;20036;-77
2023/10/13 01:19:27;;;;;;;75.95;32.30;;;;;;;;;;4890876;29;20063;-77
2023/10/13 01:22:01;;;;;;;74.68;32.92;;;;;;;;;;4890589;29;20045;-76
2023/10/13 01:24:31;;;;;;;66.38;32.10;;;;;;;;;;4892575;29;20099;-76
2023/10/13 01:26:59;;;;;;;63.90;33.28;;;;;;;;;;4895429;29;20149;-78
2023/10/13 01:29:29;;;;;;;72.97;32.88;;;;;;;;;;4880587;29;20099;-78
2023/10/13 01:31:55;;;;;;;72.03;32.75;;;;;;;;;;4878147;29;20379;-77
2023/10/13 01:34:24;;;;;;;65.70;32.15;;;;;;;;;;4894685;29;20052;-74
2023/10/13 01:36:54;;;;;;;65.45;32.42;;;;;;;;;;4896302;29;20036;-76
2023/10/13 01:39:20;;;;;;;56.65;30.70;;;;;;;;;;4880081;29;20075;-77
2023/10/13 01:41:46;;;;;;;63.90;33.17;;;;;;;;;;4889567;29;20059;-76
2023/10/13 01:44:14;;;;;;;61.08;31.75;;;;;;;;;;4874774;29;20037;-75
2023/10/13 01:46:42;;;;;;;59.30;30.05;;;;;;;;;;4893050;29;20033;-76
2023/10/13 01:49:08;;;;;;;54.08;29.77;;;;;;;;;;4896302;29;20032;-76
2023/10/13 01:51:35;;;;;;;55.03;29.33;;;;;;;;;;4894838;29;20037;-76
2023/10/13 01:54:02;;;;;;;56.08;29.13;;;;;;;;;;4877987;29;20054;-77
2023/10/13 01:56:31;;;;;;;55.50;27.83;;;;;;;;;;4889948;29;20036;-76
2023/10/13 01:58:57;;;;;;;55.58;27.27;;;;;;;;;;4898320;29;20032;-76
2023/10/13 02:01:26;;;;;;;52.08;27.75;;;;;;;;;;4875911;29;20072;-76
2023/10/13 02:04:01;;;;;;;49.05;26.38;;;;;;;;;;4892272;29;20043;-77
2023/10/13 02:06:32;;;;;;;47.83;25.63;;;;;;;;;;4874417;29;20039;-79
2023/10/13 02:09:03;;;;;;;;;;;;;;;;;;4892762;29;20039;-77
2023/10/13 02:11:30;;;;;;;48.63;25.05;;;;;;;;;;4875377;29;19945;-80
2023/10/13 02:13:57;;;;;;;49.65;25.27;;;;;;;;;;4879285;29;20028;-75
2023/10/13 02:16:25;;;;;;;52.72;24.85;;;;;;;;;;4892956;29;20041;-77
2023/10/13 02:18:52;;;;;;;47.05;22.98;;;;;;;;;;4893468;29;20041;-77
2023/10/13 02:21:18;;;;;;;52.35;24.40;;;;;;;;;;4894029;29;20052;-76
2023/10/13 02:23:45;;;;;;;45.33;22.85;;;;;;;;;;4879575;29;20142;-77
2023/10/13 02:26:21;;;;;;;47.00;23.95;;;;;;;;;;4894140;29;20095;-77
2023/10/13 02:28:52;;;;;;;48.22;23.67;;;;;;;;;;4872749;29;20037;-80
2023/10/13 02:31:19;;;;;;;43.75;22.25;;;;;;;;;;4888447;29;20036;-77
2023/10/13 02:33:45;;;;;;;47.65;22.77;;;;;;;;;;4888992;29;20573;-77
2023/10/13 02:36:12;;;;;;;47.80;23.02;;;;;;;;;;4893644;29;20059;-76
2023/10/13 02:41:10;;;;;;;49.05;22.55;;;;;;;;;;4874348;29;20044;-78
2023/10/13 02:43:37;;;;;;;50.80;23.42;;;;;;;;;;4888815;29;20293;-76
2023/10/13 02:46:04;;;;;;;59.38;23.58;;;;;;;;;;4892679;29;20037;-76
2023/10/13 02:48:39;;;;;;;45.38;22.83;;;;;;;;;;4892993;29;20029;-77
2023/10/13 02:51:15;;;;;;;62.33;24.77;;;;;;;;;;4891045;29;20033;-76
2023/10/13 02:53:48;;;;;;;57.22;26.15;;;;;;;;;;4889345;29;20462;-77
2023/10/13 02:56:20;;;;;;;51.05;24.30;;;;;;;;;;4892887;29;20040;-77
2023/10/13 02:58:53;;;;;;;60.50;25.73;;;;;;;;;;4893041;29;20104;-77
2023/10/13 03:01:20;;;;;;;54.72;25.50;;;;;;;;;;4873657;29;20482;-77
2023/10/13 03:03:54;;;;;;;57.22;26.15;;;;;;;;;;4879456;29;20086;-77
2023/10/13 03:06:32;;;;;;;55.28;25.02;;;;;;;;;;4890009;29;20028;-78
2023/10/13 03:09:13;;;;;;;61.90;26.77;;;;;;;;;;4874705;29;20111;-78
2023/10/13 03:11:47;;;;;;;62.93;26.43;;;;;;;;;;4876116;29;20550;-78
2023/10/13 03:14:23;;;;;;;52.17;25.33;;;;;;;;;;4882327;29;20078;-78
2023/10/13 03:16:50;;;;;;;65.38;25.77;;;;;;;;;;4887435;29;20033;-78
2023/10/13 03:19:19;;;;;;;69.28;26.95;;;;;;;;;;4892518;29;20096;-78
2023/10/13 03:21:52;;;;;;;51.05;24.95;;;;;;;;;;4864186;29;20083;-78
2023/10/13 03:24:22;;;;;;;57.03;25.40;;;;;;;;;;4892399;29;20033;-77
2023/10/13 03:26:52;;;;;;;62.22;26.80;;;;;;;;;;4896228;29;20031;-77
2023/10/13 03:29:23;;;;;;;62.33;27.17;;;;;;;;;;4896514;29;20035;-78
2023/10/13 03:32:06;;;;;;;58.60;25.75;;;;;;;;;;4894741;29;20044;-78
2023/10/13 03:34:34;;;;;;;57.85;25.58;;;;;;;;;;4888734;29;20028;-78
2023/10/13 03:37:10;;;;;;;65.93;26.75;;;;;;;;;;4895419;29;20033;-77
2023/10/13 03:39:37;;;;;;;66.00;26.48;;;;;;;;;;4892956;29;20036;-79
2023/10/13 03:42:05;;;;;;;67.28;26.35;;;;;;;;;;4895936;29;20062;-78
2023/10/13 03:44:31;;;;;;;60.83;25.20;;;;;;;;;;4893243;29;20041;-79
2023/10/13 03:47:09;;;;;;;51.95;24.77;;;;;;;;;;4894353;29;20126;-78
2023/10/13 03:49:38;;;;;;;48.63;22.02;;;;;;;;;;4897604;29;20394;-80
2023/10/13 03:52:05;;;;;;;54.50;22.98;;;;;;;;;;4894483;29;20052;-77
2023/10/13 03:54:34;;;;;;;48.97;25.05;;;;;;;;;;4896745;29;20049;-80
2023/10/13 03:57:05;;;;;;;51.00;24.63;;;;;;;;;;4893114;29;20135;-77
2023/10/13 03:59:35;;;;;;;56.78;25.98;;;;;;;;;;4893322;29;20039;-78
2023/10/13 04:02:06;;;;;;;53.58;26.98;;;;;;;;;;4894593;29;20120;-78
2023/10/13 04:07:20;;;;;;;47.72;25.00;;;;;;;;;;4893159;29;20112;-78
2023/10/13 04:15:17;;;;;;;50.35;21.67;;;;;;;;;;4896472;29;20064;-77
2023/10/13 04:17:45;;;;;;;41.75;21.17;;;;;;;;;;4905685;29;20044;-77
2023/10/13 04:36:16;;;;;;;40.67;21.52;;;;;;;;;;4896571;29;20059;-78
2023/10/13 04:41:57;;;;;;;37.75;22.13;;;;;;;;;;4893429;29;20048;-77
2023/10/13 04:49:29;;;;;;;29.60;19.77;;;;;;;;;;4895585;29;20114;-77
2023/10/13 04:51:59;;;;;;;27.10;18.40;;;;;;;;;;4893316;29;20466;-76
2023/10/13 04:54:26;;;;;;;32.13;20.57;;;;;;;;;;4896018;29;20304;-75
2023/10/13 06:29:41;;;;;;;23.85;12.18;;;;;;;;;;4877730;29;20029;-76
2023/10/13 06:32:11;;;;;;;28.50;13.35;;;;;;;;;;4859001;29;20061;-76
2023/10/13 06:34:37;;;;;;;24.77;12.45;;;;;;;;;;4859062;29;20048;-76
2023/10/13 06:37:22;;;;;;;24.17;12.98;;;;;;;;;;4871099;29;20040;-78
2023/10/13 06:39:49;;;;;;;30.75;12.55;;;;;;;;;;4878281;29;20040;-77
2023/10/13 06:42:16;;;;;;;26.17;13.23;;;;;;;;;;4887871;29;20564;-76
2023/10/13 06:44:46;;;;;;;28.05;12.55;;;;;;;;;;4876751;29;20065;-78
2023/10/13 06:47:12;;;;;;;26.40;12.63;;;;;;;;;;4874585;29;20037;-78
2023/10/13 06:49:43;;;;;;;22.42;13.07;;;;;;;;;;4863731;29;20491;-76
2023/10/13 06:52:13;;;;;;;25.85;14.43;;;;;;;;;;4873490;29;20036;-76
2023/10/13 06:54:40;;;;;;;24.35;14.10;;;;;;;;;;4878692;29;20045;-75
2023/10/13 06:57:10;;;;;;;25.55;14.15;;;;;;;;;;4891321;29;20108;-76
2023/10/13 06:59:41;;;;;;;27.50;15.40;;;;;;;;;;4878794;29;20465;-77
2023/10/13 07:02:09;;;;;;;32.85;19.17;;;;;;;;;;4891786;29;20100;-76
2023/10/13 07:04:39;;;;;;;32.95;20.08;;;;;;;;;;4879693;29;20037;-76
2023/10/13 07:07:10;;;;;;;36.85;22.80;;;;;;;;;;4891106;29;20028;-76
2023/10/13 07:09:40;;;;;;;33.88;22.63;;;;;;;;;;4882306;29;20514;-75
2023/10/13 07:12:16;;;;;;;35.95;24.20;;;;;;;;;;4895014;29;20040;-76
2023/10/13 07:14:51;;;;;;;41.47;25.10;;;;;;;;;;4896109;29;20059;-76
2023/10/13 07:17:23;;;;;;;43.15;27.95;;;;;;;;;;4911929;29;20036;-76
2023/10/13 07:19:53;;;;;;;41.78;27.45;;;;;;;;;;4914719;29;20461;-77
2023/10/13 07:22:20;;;;;;;38.88;26.33;;;;;;;;;;4915350;29;20550;-79
2023/10/13 07:24:50;;;;;;;39.85;25.40;;;;;;;;;;4914437;29;20040;-78
2023/10/13 07:27:25;;;;;;;34.33;23.37;;;;;;;;;;4898548;29;20436;-76
2023/10/13 07:32:53;;;;;;;31.40;18.98;;;;;;;;;;4895383;29;20127;-76
2023/10/13 07:35:20;;;;;;;31.92;18.73;;;;;;;;;;4898613;29;20150;-75
2023/10/13 07:37:52;;;;;;;25.52;16.40;;;;;;;;;;4919522;29;20143;-75
2023/10/13 07:42:50;;;;;;;30.13;16.67;;;;;;;;;;4918571;29;20040;-76
2023/10/13 07:45:25;;;;;;;28.77;15.35;;;;;;;;;;4894761;29;20035;-76
2023/10/13 07:47:52;;;;;;;25.15;14.75;;;;;;;;;;4913062;29;20020;-77
2023/10/13 07:50:25;;;;;;;25.80;14.35;;;;;;;;;;4912042;29;20033;-77
2023/10/13 07:52:59;;;;;;;28.80;14.93;;;;;;;;;;4895217;29;20036;-78
2023/10/13 07:55:25;;;;;;;29.60;13.43;;;;;;;;;;4895818;29;20084;-77
2023/10/13 07:57:54;;;;;;;26.42;13.57;;;;;;;;;;4895529;29;20043;-77
2023/10/13 08:08:38;;;;;;;29.70;11.68;;;;;;;;;;4917383;29;20034;-75
2023/10/13 08:13:53;;;;;;;25.60;10.55;;;;;;;;;;4911658;29;20036;-77
2023/10/13 08:16:22;;;;;;;;;;;;;;;;;;4911375;29;20086;-77
2023/10/13 08:18:52;;;;;;;24.23;10.18;;;;;;;;;;4911346;29;19922;-75
2023/10/13 08:21:31;;;;;;;24.65;10.20;;;;;;;;;;4912098;29;20036;-80
2023/10/13 08:23:59;;;;;;;25.23;10.02;;;;;;;;;;4908810;29;20032;-76
2023/10/13 08:34:38;;;;;;;21.80;9.40;;;;;;;;;;4910200;29;20501;-76
2023/10/13 08:48:07;;;;;;;27.10;8.98;;;;;;;;;;4910487;29;20037;-76
2023/10/13 08:53:31;;;;;;;24.77;8.02;;;;;;;;;;4915456;29;20043;-75
2023/10/13 09:06:52;;;;;;;28.30;8.18;;;;;;;;;;4906011;29;20040;-76
2023/10/13 09:09:34;;;;;;;26.67;8.60;;;;;;;;;;4912615;29;20024;-76
2023/10/13 09:12:09;;;;;;;24.08;8.57;;;;;;;;;;4909267;29;20040;-76
2023/10/13 09:14:43;;;;;;;23.40;7.90;;;;;;;;;;4921506;29;20032;-76
2023/10/13 09:17:34;;;;;;;23.95;8.93;;;;;;;;;;4893377;29;20032;-78
2023/10/13 09:19:55;;;;;;;27.05;8.73;;;;;;;;;;4912631;29;20043;-80
2023/10/13 09:22:35;;;;;;;24.30;8.27;;;;;;;;;;4891667;29;20043;-77
2023/10/13 09:25:02;;;;;;;24.13;7.82;;;;;;;;;;4911294;29;20058;-77
2023/10/13 09:27:29;;;;;;;25.85;8.50;;;;;;;;;;4910361;29;20051;-77
2023/10/13 09:30:23;;;;;;;24.33;8.23;;;;;;;;;;4911227;29;20036;-77
2023/10/13 09:33:01;;;;;;;26.95;8.60;;;;;;;;;;4920828;29;20039;-76
2023/10/13 09:35:28;;;;;;;24.92;7.93;;;;;;;;;;4913970;29;20463;-77
2023/10/13 09:37:56;;;;;;;29.23;8.45;;;;;;;;;;4912531;29;20076;-78
2023/10/13 09:40:38;;;;;;;22.02;8.68;;;;;;;;;;4914396;29;20074;-77
2023/10/13 09:43:07;;;;;;;24.80;9.65;;;;;;;;;;4910409;29;20143;-77
2023/10/13 09:45:39;;;;;;;28.30;8.70;;;;;;;;;;4924163;29;20055;-77
2023/10/13 09:48:26;;;;;;;19.60;7.97;;;;;;;;;;4909785;29;20032;-77
2023/10/13 09:50:53;;;;;;;40.38;9.30;;;;;;;;;;4908953;29;20031;-75
2023/10/13 09:53:23;;;;;;;27.42;8.23;;;;;;;;;;4910162;29;20032;-75
2023/10/13 09:56:12;;;;;;;29.33;9.23;;;;;;;;;;4907885;29;20044;-76
2023/10/13 09:58:47;;;;;;;26.55;8.35;;;;;;;;;;4907823;29;20064;-76
2023/10/13 10:01:20;;;;;;;21.65;7.43;;;;;;;;;;4894321;29;20048;-78
2023/10/13 10:06:43;;;;;;;24.88;8.23;;;;;;;;;;4887008;29;20043;-76
2023/10/13 10:09:13;;;;;;;22.70;8.82;;;;;;;;;;4910194;29;20036;-75
2023/10/13 10:11:48;;;;;;;30.30;8.77;;;;;;;;;;4896110;29;20047;-75
2023/10/13 10:14:24;;;;;;;23.20;7.68;;;;;;;;;;4909845;29;20033;-76
2023/10/13 10:17:07;;;;;;;32.72;9.55;;;;;;;;;;4909759;29;20032;-76
2023/10/13 10:19:35;;;;;;;20.65;8.10;;;;;;;;;;4913076;29;20044;-80
2023/10/13 10:22:16;;;;;;;22.42;7.95;;;;;;;;;;4915448;29;20031;-75
2023/10/13 10:24:43;;;;;;;29.33;7.68;;;;;;;;;;4912900;29;20040;-75
2023/10/13 10:27:14;;;;;;;20.92;7.38;;;;;;;;;;4893485;29;20039;-76
2023/10/13 10:29:41;;;;;;;24.77;7.60;;;;;;;;;;4912441;29;20055;-77
2023/10/13 10:32:14;;;;;;;22.05;7.05;;;;;;;;;;4911946;29;20044;-76
2023/10/13 10:34:40;;;;;;;23.55;8.02;;;;;;;;;;4920478;29;20028;-75
2023/10/13 10:37:09;;;;;;;22.50;8.70;;;;;;;;;;4914899;29;20036;-77
2023/10/13 10:39:45;;;;;;;24.95;7.60;;;;;;;;;;4899608;29;20032;-77
2023/10/13 10:42:29;;;;;;;31.90;7.28;;;;;;;;;;4917594;29;20047;-77
2023/10/13 10:44:55;;;;;;;17.55;7.15;;;;;;;;;;4914571;29;20028;-78
2023/10/13 10:47:42;;;;;;;24.80;7.20;;;;;;;;;;4912082;29;20043;-76
2023/10/13 10:50:19;;;;;;;25.00;8.32;;;;;;;;;;4914826;29;20040;-77
2023/10/13 10:52:46;;;;;;;19.08;7.25;;;;;;;;;;4899631;29;20039;-76
2023/10/13 10:55:19;;;;;;;20.15;7.88;;;;;;;;;;4915020;29;20039;-76
2023/10/13 10:57:48;;;;;;;25.55;7.95;;;;;;;;;;4903600;29;20126;-76
2023/10/13 11:00:25;;;;;;;30.33;9.30;;;;;;;;;;4896933;29;20040;-76
2023/10/13 11:02:55;;;;;;;20.98;8.50;;;;;;;;;;4931308;29;20142;-76
2023/10/13 11:05:21;;;;;;;22.48;7.25;;;;;;;;;;4913732;29;20211;-78
2023/10/13 11:07:51;;;;;;;25.75;9.18;;;;;;;;;;4927684;29;20536;-76
2023/10/13 11:10:20;;;;;;;27.83;8.30;;;;;;;;;;4929575;29;20092;-76
2023/10/13 11:13:21;;;;;;;24.17;8.13;;;;;;;;;;4920683;29;20139;-74
2023/10/13 11:15:48;;;;;;;23.60;7.25;;;;;;;;;;4919314;29;20146;-75
2023/10/13 11:18:23;;;;;;;22.98;8.13;;;;;;;;;;4884328;29;20139;-74
2023/10/13 11:20:54;;;;;;;30.73;9.10;;;;;;;;;;4916645;29;20024;-76
2023/10/13 11:23:25;;;;;;;16.65;7.50;;;;;;;;;;4911955;29;20064;-75
2023/10/13 11:25:59;;;;;;;28.13;8.23;;;;;;;;;;4913547;29;20084;-76
2023/10/13 11:28:28;;;;;;;32.33;8.45;;;;;;;;;;4914906;29;20020;-76
2023/10/13 11:31:10;;;;;;;23.17;8.23;;;;;;;;;;4914571;29;20034;-75
2023/10/13 11:33:42;;;;;;;23.08;7.55;;;;;;;;;;4900482;29;20036;-76
2023/10/13 11:36:15;;;;;;;26.67;7.70;;;;;;;;;;4914774;29;20224;-77
2023/10/13 11:41:19;;;;;;;28.00;7.72;;;;;;;;;;4911955;29;20047;-76
2023/10/13 11:46:16;;;;;;;25.42;6.95;;;;;;;;;;4912027;29;20036;-74
2023/10/13 11:48:46;;;;;;;30.48;7.93;;;;;;;;;;4917338;29;20032;-77
2023/10/13 11:51:26;;;;;;;22.13;8.23;;;;;;;;;;4915350;29;20047;-78
2023/10/13 11:53:52;;;;;;;28.63;7.72;;;;;;;;;;4911980;29;20194;-76
2023/10/13 11:56:22;;;;;;;22.88;7.55;;;;;;;;;;4896851;29;20413;-78
2023/10/13 11:58:48;;;;;;;21.83;8.03;;;;;;;;;;4892398;29;20040;-76
2023/10/13 12:11:44;;;;;;;24.13;7.78;;;;;;;;;;4916906;29;20060;-78
2023/10/13 12:14:21;;;;;;;27.58;8.40;;;;;;;;;;4915829;29;20074;-77
2023/10/13 12:16:51;;;;;;;22.70;8.98;;;;;;;;;;4929706;29;20036;-76
2023/10/13 12:19:18;;;;;;;23.17;7.95;;;;;;;;;;4915755;29;20072;-75
2023/10/13 12:21:46;;;;;;;27.05;8.60;;;;;;;;;;4898964;29;20042;-76
2023/10/13 12:24:22;;;;;;;31.50;7.90;;;;;;;;;;4903228;29;20453;-77
2023/10/13 12:26:55;;;;;;;24.35;7.88;;;;;;;;;;4921988;29;20039;-75
2023/10/13 12:29:27;;;;;;;25.30;8.13;;;;;;;;;;4915419;29;20028;-75
2023/10/13 12:32:11;;;;;;;33.20;7.93;;;;;;;;;;4923335;29;20032;-77
2023/10/13 12:53:51;;;;;;;25.52;7.72;;;;;;;;;;4918152;29;20058;-77
2023/10/13 12:56:22;;;;;;;31.83;8.57;;;;;;;;;;4915230;29;20135;-77
2023/10/13 12:58:54;;;;;;;33.00;8.75;;;;;;;;;;4898984;29;20088;-76
2023/10/13 13:01:21;;;;;;;28.48;8.35;;;;;;;;;;4914248;29;20092;-77
2023/10/13 13:03:50;;;;;;;28.00;8.82;;;;;;;;;;4922316;29;20024;-77
2023/10/13 13:06:26;;;;;;;22.60;8.90;;;;;;;;;;4922782;29;20087;-77
2023/10/13 13:08:55;;;;;;;30.05;10.55;;;;;;;;;;4920566;29;20040;-77
2023/10/13 13:11:21;;;;;;;21.58;8.23;;;;;;;;;;4928678;29;20098;-77
2023/10/13 13:13:48;;;;;;;32.72;9.80;;;;;;;;;;4911633;29;20134;-77
2023/10/13 13:16:14;;;;;;;32.17;10.75;;;;;;;;;;4911245;29;20039;-77
2023/10/13 13:18:43;;;;;;;29.95;8.75;;;;;;;;;;4882802;29;20032;-77
2023/10/13 13:21:12;;;;;;;31.85;9.20;;;;;;;;;;4925042;29;20072;-76
2023/10/13 13:23:39;;;;;;;30.33;9.75;;;;;;;;;;4912314;29;20122;-77
2023/10/13 13:26:15;;;;;;;27.90;9.77;;;;;;;;;;4909621;29;20087;-77
2023/10/13 13:28:50;;;;;;;33.28;10.18;;;;;;;;;;4912956;29;20478;-76
2023/10/13 13:31:18;;;;;;;25.92;9.43;;;;;;;;;;4895742;29;20398;-76
2023/10/13 13:33:44;;;;;;;34.38;10.57;;;;;;;;;;4898446;29;20040;-77
2023/10/13 13:36:15;;;;;;;22.48;9.38;;;;;;;;;;4909561;29;20043;-79
2023/10/13 13:38:41;;;;;;;;;;;;;;;;;;4907033;29;20095;-76
2023/10/13 13:41:17;;;;;;;26.63;8.85;;;;;;;;;;4911921;29;20257;-76
2023/10/13 13:46:17;;;;;;;29.23;9.63;;;;;;;;;;4913426;29;20038;-76
2023/10/13 13:48:43;;;;;;;26.27;9.50;;;;;;;;;;4896115;29;20037;-76
2023/10/13 13:51:14;;;;;;;22.42;8.77;;;;;;;;;;4895989;29;20379;-76
2023/10/13 13:53:44;;;;;;;32.33;9.48;;;;;;;;;;4896192;29;20139;-78
2023/10/13 13:56:11;;;;;;;28.52;9.10;;;;;;;;;;4908611;29;20110;-76
2023/10/13 13:58:38;;;;;;;26.08;9.52;;;;;;;;;;4901088;29;20139;-76
2023/10/13 14:01:18;;;;;;;29.73;9.30;;;;;;;;;;4902983;29;20587;-76
2023/10/13 14:03:45;;;;;;;24.08;10.70;;;;;;;;;;4915402;29;20043;-77
2023/10/13 14:06:18;;;;;;;27.23;10.40;;;;;;;;;;4909210;29;20031;-77
2023/10/13 14:08:48;;;;;;;34.05;11.68;;;;;;;;;;4933830;29;20126;-76
2023/10/13 14:14:04;;;;;;;28.90;10.82;;;;;;;;;;4924678;29;20082;-77
2023/10/13 14:16:33;;;;;;;34.40;11.90;;;;;;;;;;4915271;29;20035;-78
2023/10/13 14:19:01;;;;;;;26.25;12.00;;;;;;;;;;4922869;29;20043;-78
2023/10/13 14:21:27;;;;;;;33.17;12.10;;;;;;;;;;4907309;29;20047;-78
2023/10/13 14:23:54;;;;;;;32.58;14.32;;;;;;;;;;4914776;29;21339;-76
2023/10/13 14:26:21;;;;;;;31.52;12.68;;;;;;;;;;4918281;29;20123;-76
2023/10/13 14:29:09;;;;;;;33.70;13.35;;;;;;;;;;4908959;29;20042;-76
2023/10/13 14:31:54;;;;;;;37.20;12.00;;;;;;;;;;4881744;29;20032;-79
2023/10/13 14:34:23;;;;;;;28.15;10.38;;;;;;;;;;4900801;29;20115;-76
2023/10/13 14:36:49;;;;;;;27.73;10.05;;;;;;;;;;4897814;29;20075;-76
2023/10/13 14:39:15;;;;;;;19.90;8.35;;;;;;;;;;4914936;29;20047;-76
2023/10/13 14:41:41;;;;;;;22.13;8.43;;;;;;;;;;4903225;29;20569;-80
2023/10/13 14:44:08;;;;;;;23.17;8.43;;;;;;;;;;4903591;29;20069;-77
2023/10/13 14:46:40;;;;;;;20.70;7.60;;;;;;;;;;4898728;29;20033;-77
2023/10/13 14:49:07;;;;;;;18.17;7.38;;;;;;;;;;4897449;29;20107;-77
2023/10/13 14:51:33;;;;;;;22.13;7.13;;;;;;;;;;4900596;29;20024;-76
2023/10/13 14:54:00;;;;;;;15.82;6.30;;;;;;;;;;4903241;29;20061;-76
2023/10/13 14:56:27;;;;;;;25.42;7.82;;;;;;;;;;4899100;29;20024;-76
2023/10/13 14:58:55;;;;;;;22.63;7.00;;;;;;;;;;4916337;29;20119;-76
2023/10/13 15:01:24;;;;;;;21.05;7.40;;;;;;;;;;4910505;29;20227;-77
2023/10/13 15:03:54;;;;;;;35.42;9.15;;;;;;;;;;4915561;29;20123;-78
2023/10/13 15:06:25;;;;;;;24.33;8.00;;;;;;;;;;4907534;29;20035;-75
2023/10/13 15:08:53;;;;;;;26.02;7.82;;;;;;;;;;4921024;29;20033;-76
2023/10/13 15:11:27;;;;;;;20.63;7.63;;;;;;;;;;4919601;29;20063;-76
2023/10/13 15:13:53;;;;;;;26.42;8.82;;;;;;;;;;4910609;29;20483;-77
2023/10/13 15:16:21;;;;;;;27.77;9.23;;;;;;;;;;4920668;29;20028;-77
2023/10/13 15:18:52;;;;;;;21.88;8.32;;;;;;;;;;4916567;29;20171;-76
2023/10/13 15:21:22;;;;;;;30.48;9.68;;;;;;;;;;4908975;29;20185;-75
2023/10/13 15:23:52;;;;;;;32.13;9.77;;;;;;;;;;4925990;29;20042;-76
2023/10/13 15:26:20;;;;;;;30.02;10.35;;;;;;;;;;4917334;29;20036;-77
2023/10/13 15:28:53;;;;;;;22.38;8.98;;;;;;;;;;4917280;29;20032;-77
2023/10/13 15:31:26;;;;;;;26.65;11.02;;;;;;;;;;4919125;29;20041;-77
2023/10/13 15:33:54;;;;;;;25.38;9.32;;;;;;;;;;4907092;29;20035;-77
2023/10/13 15:36:21;;;;;;;30.67;10.77;;;;;;;;;;4923379;29;20065;-77
2023/10/13 15:38:47;;;;;;;28.70;11.27;;;;;;;;;;4917328;29;20040;-77
2023/10/13 15:41:13;;;;;;;33.58;11.88;;;;;;;;;;4920827;29;20096;-77
2023/10/13 15:43:49;;;;;;;30.83;12.60;;;;;;;;;;4902742;29;20032;-76
2023/10/13 15:46:17;;;;;;;36.20;13.88;;;;;;;;;;4933405;29;20028;-77
2023/10/13 15:48:45;;;;;;;37.50;14.77;;;;;;;;;;4919835;29;20401;-76
2023/10/13 15:51:16;;;;;;;36.78;14.82;;;;;;;;;;4922459;29;20147;-78
2023/10/13 15:53:49;;;;;;;34.10;14.05;;;;;;;;;;4920474;29;20044;-77
2023/10/13 15:56:16;;;;;;;35.38;14.35;;;;;;;;;;4895079;29;20028;-76
2023/10/13 15:58:46;;;;;;;40.60;14.15;;;;;;;;;;4922206;29;20032;-77
2023/10/13 16:01:15;;;;;;;46.63;16.02;;;;;;;;;;4905131;29;20067;-77
2023/10/13 16:03:49;;;;;;;40.00;15.77;;;;;;;;;;4898332;29;20186;-77
2023/10/13 16:06:16;;;;;;;36.28;15.27;;;;;;;;;;4908865;29;20024;-76
2023/10/13 16:08:42;;;;;;;37.35;16.10;;;;;;;;;;4921649;29;20036;-80
2023/10/13 16:11:19;;;;;;;33.90;15.27;;;;;;;;;;4941206;29;20059;-78
2023/10/13 16:13:45;;;;;;;39.97;15.77;;;;;;;;;;4912250;29;20397;-77
2023/10/13 16:16:15;;;;;;;42.92;15.35;;;;;;;;;;4914438;29;20044;-77
2023/10/13 16:18:43;;;;;;;37.25;15.02;;;;;;;;;;4913736;29;20035;-77
2023/10/13 16:21:12;;;;;;;44.30;16.63;;;;;;;;;;4911065;29;20037;-77
2023/10/13 16:23:48;;;;;;;41.60;14.80;;;;;;;;;;4911605;29;20032;-77
2023/10/13 16:26:21;;;;;;;39.53;15.10;;;;;;;;;;4894366;29;20036;-77
2023/10/13 16:28:53;;;;;;;41.08;15.13;;;;;;;;;;4913130;29;20035;-76
2023/10/13 16:31:27;;;;;;;39.72;15.07;;;;;;;;;;4910640;29;20050;-77
2023/10/13 16:33:59;;;;;;;35.60;15.40;;;;;;;;;;4911924;29;20043;-77
2023/10/13 16:36:25;;;;;;;45.92;19.88;;;;;;;;;;4911509;29;20028;-77
2023/10/13 16:38:52;;;;;;;31.92;15.93;;;;;;;;;;4910859;29;20028;-76
2023/10/13 16:41:18;;;;;;;32.85;16.20;;;;;;;;;;4912924;29;20035;-76
2023/10/13 16:43:45;;;;;;;39.47;18.65;;;;;;;;;;4913914;29;20041;-75
2023/10/13 16:46:12;;;;;;;31.35;15.98;;;;;;;;;;4929178;29;20048;-77
2023/10/13 16:48:39;;;;;;;37.53;17.80;;;;;;;;;;4912933;29;20025;-78
2023/10/13 16:51:05;;;;;;;40.97;17.17;;;;;;;;;;4905890;29;20045;-78
2023/10/13 16:53:32;;;;;;;38.50;17.15;;;;;;;;;;4927426;29;20032;-78
2023/10/13 16:56:01;;;;;;;38.38;17.10;;;;;;;;;;4911504;29;20040;-78
2023/10/13 16:58:33;;;;;;;33.72;17.42;;;;;;;;;;4910213;29;20162;-78
2023/10/13 17:01:03;;;;;;;35.35;16.83;;;;;;;;;;4908845;29;20047;-77
2023/10/13 17:03:30;;;;;;;42.03;15.10;;;;;;;;;;4913182;29;20040;-77
2023/10/13 17:06:02;;;;;;;42.50;15.73;;;;;;;;;;4912437;29;20024;-77
2023/10/13 17:08:29;;;;;;;31.77;15.40;;;;;;;;;;4909285;29;20063;-76
2023/10/13 17:11:12;;;;;;;33.20;15.15;;;;;;;;;;4909799;29;20388;-76
2023/10/13 17:13:39;;;;;;;43.30;20.15;;;;;;;;;;4912525;29;20107;-74
2023/10/13 17:16:13;;;;;;;38.38;19.58;;;;;;;;;;4912408;29;20102;-76
2023/10/13 17:18:39;;;;;;;41.35;17.23;;;;;;;;;;4909923;29;20473;-77
2023/10/13 17:21:13;;;;;;;40.90;16.50;;;;;;;;;;4927406;29;20175;-75
2023/10/13 17:23:40;;;;;;;40.92;15.95;;;;;;;;;;4908132;29;20032;-75
2023/10/13 17:26:06;;;;;;;31.20;15.65;;;;;;;;;;4912559;29;21434;-76
2023/10/13 17:28:34;;;;;;;36.25;15.27;;;;;;;;;;4911727;29;20031;-77
2023/10/13 17:31:01;;;;;;;33.50;15.80;;;;;;;;;;4913337;29;20033;-79
2023/10/13 17:33:27;;;;;;;38.85;15.93;;;;;;;;;;4912071;29;20047;-75
2023/10/13 17:35:53;;;;;;;45.20;16.75;;;;;;;;;;4912867;29;20047;-76
2023/10/13 17:38:19;;;;;;;31.50;14.82;;;;;;;;;;4907794;29;20092;-78
2023/10/13 17:40:47;;;;;;;37.40;15.57;;;;;;;;;;4914599;29;20043;-78
2023/10/13 17:43:14;;;;;;;36.88;16.08;;;;;;;;;;4904194;29;20088;-79
2023/10/13 17:45:40;;;;;;;35.55;15.23;;;;;;;;;;4900128;29;20100;-80
2023/10/13 17:48:06;;;;;;;35.30;15.48;;;;;;;;;;4913913;29;20024;-79
2023/10/13 17:50:33;;;;;;;34.95;15.95;;;;;;;;;;4908219;29;20100;-77
2023/10/13 17:53:01;;;;;;;41.25;16.35;;;;;;;;;;4906754;29;20097;-78
2023/10/13 17:55:27;;;;;;;38.13;16.30;;;;;;;;;;4910125;29;20099;-80
2023/10/13 17:57:54;;;;;;;38.28;16.20;;;;;;;;;;4912930;29;20113;-79
2023/10/13 18:00:23;;;;;;;33.55;16.35;;;;;;;;;;4914020;29;20091;-78
2023/10/13 18:02:54;;;;;;;35.75;16.33;;;;;;;;;;4933605;29;20028;-80
2023/10/13 18:05:20;;;;;;;29.17;14.95;;;;;;;;;;4901145;29;20262;-80
2023/10/13 18:07:47;;;;;;;38.95;15.55;;;;;;;;;;4902167;29;20043;-79
2023/10/13 18:10:14;;;;;;;32.53;14.80;;;;;;;;;;4900987;29;20044;-79
2023/10/13 18:12:46;;;;;;;36.45;15.23;;;;;;;;;;4910106;29;20078;-78
2023/10/13 18:15:23;;;;;;;33.30;15.65;;;;;;;;;;4922604;29;20036;-81
2023/10/13 18:17:50;;;;;;;32.97;14.95;;;;;;;;;;4926404;29;20036;-79
2023/10/13 18:20:19;;;;;;;34.15;15.02;;;;;;;;;;4920973;29;20044;-79
2023/10/13 18:22:45;;;;;;;42.50;15.38;;;;;;;;;;4926708;29;20092;-79
2023/10/13 18:25:14;;;;;;;48.75;17.02;;;;;;;;;;4913640;29;20047;-78